sensor_id;sensor_type;location;lat;lon;timestamp;temperature;humidity
15156;DHT22;7678;50.058;8.306;2023-04-01T00:01:43;10.10;99.90
15156;DHT22;7678;50.058;8.306;2023-04-01T00:04:11;10.10;99.90
15156;DHT22;7678;50.058;8.306;2023-04-01T00:06:39;10.10;99.90
15156;DHT22;7678;50.058;8.306;2023-04-01T00:09:07;10.10;99.90
15156;DHT22;7678;50.058;8.306;2023-04-01T00:11:35;10.10;99.90
15156;DHT22;7678;50.058;8.306;2023-04-01T00:14:03;10.20;99.90
15156;DHT22;7678;50.058;8.306;2023-04-01T00:16:50;10.20;99.90
15156;DHT22;7678;50.058;8.306;2023-04-01T00:19:19;10.10;99.90
15156;DHT22;7678;50.058;8.306;2023-04-01T00:21:47;10.10;99.90
15156;DHT22;7678;50.058;8.306;2023-04-01T00:24:15;10.10;99.90
15156;DHT22;7678;50.058;8.306;2023-04-01T00:26:46;10.10;99.90
15156;DHT22;7678;50.058;8.306;2023-04-01T00:29:14;10.20;99.90
15156;DHT22;7678;50.058;8.306;2023-04-01T00:31:42;10.10;99.90
15156;DHT22;7678;50.058;8.306;2023-04-01T00:34:12;10.10;99.90
15156;DHT22;7678;50.058;8.306;2023-04-01T00:36:40;10.10;99.90
15156;DHT22;7678;50.058;8.306;2023-04-01T00:39:08;10.10;99.90
15156;DHT22;7678;50.058;8.306;2023-04-01T00:41:36;10.10;99.90
15156;DHT22;7678;50.058;8.306;2023-04-01T00:44:19;10.10;99.90
15156;DHT22;7678;50.058;8.306;2023-04-01T00:46:47;10.00;99.90
15156;DHT22;7678;50.058;8.306;2023-04-01T00:49:18;10.00;99.90
15156;DHT22;7678;50.058;8.306;2023-04-01T00:51:49;10.00;99.90
15156;DHT22;7678;50.058;8.306;2023-04-01T00:54:19;9.90;99.90
15156;DHT22;7678;50.058;8.306;2023-04-01T00:56:55;10.00;99.90
15156;DHT22;7678;50.058;8.306;2023-04-01T00:59:26;9.90;99.90
15156;DHT22;7678;50.058;8.306;2023-04-01T01:01:55;9.90;99.90
15156;DHT22;7678;50.058;8.306;2023-04-01T01:04:26;9.90;99.90
15156;DHT22;7678;50.058;8.306;2023-04-01T01:07:03;9.90;99.90
15156;DHT22;7678;50.058;8.306;2023-04-01T01:09:41;9.90;99.90
15156;DHT22;7678;50.058;8.306;2023-04-01T01:12:14;10.00;99.90
15156;DHT22;7678;50.058;8.306;2023-04-01T01:14:53;9.90;99.90
15156;DHT22;7678;50.058;8.306;2023-04-01T01:17:35;9.90;99.90
15156;DHT22;7678;50.058;8.306;2023-04-01T01:26:40;9.90;99.90
15156;DHT22;7678;50.058;8.306;2023-04-01T01:29:33;9.90;99.90
15156;DHT22;7678;50.058;8.306;2023-04-01T01:32:08;9.90;99.90
15156;DHT22;7678;50.058;8.306;2023-04-01T01:34:43;9.90;99.90
15156;DHT22;7678;50.058;8.306;2023-04-01T01:37:19;9.80;99.90
15156;DHT22;7678;50.058;8.306;2023-04-01T01:39:51;9.80;99.90
15156;DHT22;7678;50.058;8.306;2023-04-01T01:42:21;9.90;99.90
15156;DHT22;7678;50.058;8.306;2023-04-01T01:44:51;9.90;99.90
15156;DHT22;7678;50.058;8.306;2023-04-01T01:47:21;9.90;99.90
15156;DHT22;7678;50.058;8.306;2023-04-01T01:49:51;9.80;99.90
15156;DHT22;7678;50.058;8.306;2023-04-01T01:52:23;9.80;99.90
15156;DHT22;7678;50.058;8.306;2023-04-01T01:54:53;9.90;99.90
15156;DHT22;7678;50.058;8.306;2023-04-01T01:57:24;9.90;99.90
15156;DHT22;7678;50.058;8.306;2023-04-01T01:59:55;9.80;99.90
15156;DHT22;7678;50.058;8.306;2023-04-01T02:02:25;9.80;99.90
15156;DHT22;7678;50.058;8.306;2023-04-01T02:04:58;9.70;99.90
15156;DHT22;7678;50.058;8.306;2023-04-01T02:07:33;9.80;99.90
15156;DHT22;7678;50.058;8.306;2023-04-01T02:10:03;9.80;99.90
15156;DHT22;7678;50.058;8.306;2023-04-01T02:12:33;9.80;99.90
15156;DHT22;7678;50.058;8.306;2023-04-01T02:15:06;9.80;99.90
15156;DHT22;7678;50.058;8.306;2023-04-01T02:17:39;9.80;99.90
15156;DHT22;7678;50.058;8.306;2023-04-01T02:20:11;9.70;99.90
15156;DHT22;7678;50.058;8.306;2023-04-01T02:22:43;9.70;99.90
15156;DHT22;7678;50.058;8.306;2023-04-01T02:25:16;9.70;99.90
15156;DHT22;7678;50.058;8.306;2023-04-01T02:27:50;9.80;99.90
15156;DHT22;7678;50.058;8.306;2023-04-01T02:30:18;9.70;99.90
15156;DHT22;7678;50.058;8.306;2023-04-01T02:32:47;9.70;99.90
15156;DHT22;7678;50.058;8.306;2023-04-01T02:35:22;9.60;99.90
15156;DHT22;7678;50.058;8.306;2023-04-01T02:37:53;9.60;99.90
15156;DHT22;7678;50.058;8.306;2023-04-01T02:40:22;9.60;99.90
15156;DHT22;7678;50.058;8.306;2023-04-01T02:42:50;9.60;99.90
15156;DHT22;7678;50.058;8.306;2023-04-01T02:45:18;9.60;99.90
15156;DHT22;7678;50.058;8.306;2023-04-01T02:47:46;9.60;99.90
15156;DHT22;7678;50.058;8.306;2023-04-01T02:50:14;9.60;99.90
15156;DHT22;7678;50.058;8.306;2023-04-01T02:52:42;9.60;99.90
15156;DHT22;7678;50.058;8.306;2023-04-01T02:55:19;9.60;99.90
15156;DHT22;7678;50.058;8.306;2023-04-01T02:57:52;9.60;99.90
15156;DHT22;7678;50.058;8.306;2023-04-01T03:00:32;9.60;99.90
15156;DHT22;7678;50.058;8.306;2023-04-01T03:03:00;9.50;99.90
15156;DHT22;7678;50.058;8.306;2023-04-01T03:05:29;9.50;99.90
15156;DHT22;7678;50.058;8.306;2023-04-01T03:08:04;9.50;99.90
15156;DHT22;7678;50.058;8.306;2023-04-01T03:10:34;9.50;99.90
15156;DHT22;7678;50.058;8.306;2023-04-01T03:13:03;9.50;99.90
15156;DHT22;7678;50.058;8.306;2023-04-01T03:15:31;9.50;99.90
15156;DHT22;7678;50.058;8.306;2023-04-01T03:17:59;9.50;99.90
15156;DHT22;7678;50.058;8.306;2023-04-01T03:20:28;9.50;99.90
15156;DHT22;7678;50.058;8.306;2023-04-01T03:22:56;9.50;99.90
15156;DHT22;7678;50.058;8.306;2023-04-01T03:25:27;9.50;99.90
15156;DHT22;7678;50.058;8.306;2023-04-01T03:27:59;9.50;99.90
15156;DHT22;7678;50.058;8.306;2023-04-01T03:30:27;9.50;99.90
15156;DHT22;7678;50.058;8.306;2023-04-01T03:32:57;9.50;99.90
15156;DHT22;7678;50.058;8.306;2023-04-01T03:35:26;9.50;99.90
15156;DHT22;7678;50.058;8.306;2023-04-01T03:37:57;9.50;99.90
15156;DHT22;7678;50.058;8.306;2023-04-01T03:40:31;9.50;99.90
15156;DHT22;7678;50.058;8.306;2023-04-01T03:43:01;9.50;99.90
15156;DHT22;7678;50.058;8.306;2023-04-01T03:45:31;9.50;99.90
15156;DHT22;7678;50.058;8.306;2023-04-01T03:48:00;9.60;99.90
15156;DHT22;7678;50.058;8.306;2023-04-01T03:50:34;9.50;99.90
15156;DHT22;7678;50.058;8.306;2023-04-01T03:53:04;9.50;99.90
15156;DHT22;7678;50.058;8.306;2023-04-01T03:55:32;9.50;99.90
15156;DHT22;7678;50.058;8.306;2023-04-01T03:58:02;9.60;99.90
15156;DHT22;7678;50.058;8.306;2023-04-01T04:00:31;9.60;99.90
15156;DHT22;7678;50.058;8.306;2023-04-01T04:02:59;9.60;99.90
15156;DHT22;7678;50.058;8.306;2023-04-01T04:05:27;9.50;99.90
15156;DHT22;7678;50.058;8.306;2023-04-01T04:07:55;9.60;99.90
15156;DHT22;7678;50.058;8.306;2023-04-01T04:10:24;9.60;99.90
15156;DHT22;7678;50.058;8.306;2023-04-01T04:12:52;9.60;99.90
15156;DHT22;7678;50.058;8.306;2023-04-01T04:15:22;9.60;99.90
15156;DHT22;7678;50.058;8.306;2023-04-01T04:17:52;9.60;99.90
15156;DHT22;7678;50.058;8.306;2023-04-01T04:20:20;9.60;99.90
15156;DHT22;7678;50.058;8.306;2023-04-01T04:22:48;9.60;99.90
15156;DHT22;7678;50.058;8.306;2023-04-01T04:25:16;9.60;99.90
15156;DHT22;7678;50.058;8.306;2023-04-01T04:27:44;9.60;99.90
15156;DHT22;7678;50.058;8.306;2023-04-01T04:30:15;9.60;99.90
15156;DHT22;7678;50.058;8.306;2023-04-01T04:32:44;9.60;99.90
15156;DHT22;7678;50.058;8.306;2023-04-01T04:35:16;9.60;99.90
15156;DHT22;7678;50.058;8.306;2023-04-01T04:37:44;9.50;99.90
15156;DHT22;7678;50.058;8.306;2023-04-01T04:40:12;9.50;99.90
15156;DHT22;7678;50.058;8.306;2023-04-01T04:42:46;9.50;99.90
15156;DHT22;7678;50.058;8.306;2023-04-01T04:45:14;9.50;99.90
15156;DHT22;7678;50.058;8.306;2023-04-01T04:47:44;9.50;99.90
15156;DHT22;7678;50.058;8.306;2023-04-01T04:50:18;9.50;99.90
15156;DHT22;7678;50.058;8.306;2023-04-01T04:52:46;9.60;99.90
15156;DHT22;7678;50.058;8.306;2023-04-01T04:55:14;9.50;99.90
15156;DHT22;7678;50.058;8.306;2023-04-01T04:57:42;9.40;99.90
15156;DHT22;7678;50.058;8.306;2023-04-01T05:00:11;9.50;99.90
15156;DHT22;7678;50.058;8.306;2023-04-01T05:02:39;9.50;99.90
15156;DHT22;7678;50.058;8.306;2023-04-01T05:08:01;9.50;99.90
15156;DHT22;7678;50.058;8.306;2023-04-01T05:10:29;9.50;99.90
15156;DHT22;7678;50.058;8.306;2023-04-01T05:13:00;9.50;99.90
15156;DHT22;7678;50.058;8.306;2023-04-01T05:15:28;9.50;99.90
15156;DHT22;7678;50.058;8.306;2023-04-01T05:17:56;9.50;99.90
15156;DHT22;7678;50.058;8.306;2023-04-01T05:20:24;9.50;99.90
15156;DHT22;7678;50.058;8.306;2023-04-01T05:22:55;9.50;99.90
15156;DHT22;7678;50.058;8.306;2023-04-01T05:25:25;9.50;99.90
15156;DHT22;7678;50.058;8.306;2023-04-01T05:27:56;9.50;99.90
15156;DHT22;7678;50.058;8.306;2023-04-01T05:30:24;9.50;99.90
15156;DHT22;7678;50.058;8.306;2023-04-01T05:32:52;9.50;99.90
15156;DHT22;7678;50.058;8.306;2023-04-01T05:35:21;9.50;99.90
15156;DHT22;7678;50.058;8.306;2023-04-01T05:37:49;9.50;99.90
15156;DHT22;7678;50.058;8.306;2023-04-01T05:40:17;9.50;99.90
15156;DHT22;7678;50.058;8.306;2023-04-01T05:42:47;9.50;99.90
15156;DHT22;7678;50.058;8.306;2023-04-01T05:45:15;9.50;99.90
15156;DHT22;7678;50.058;8.306;2023-04-01T05:47:43;9.40;99.90
15156;DHT22;7678;50.058;8.306;2023-04-01T05:50:11;9.40;99.90
15156;DHT22;7678;50.058;8.306;2023-04-01T05:52:39;9.30;99.90
15156;DHT22;7678;50.058;8.306;2023-04-01T05:55:08;9.40;99.90
15156;DHT22;7678;50.058;8.306;2023-04-01T05:57:36;9.30;99.90
15156;DHT22;7678;50.058;8.306;2023-04-01T06:00:06;9.30;99.90
15156;DHT22;7678;50.058;8.306;2023-04-01T06:02:35;9.30;99.90
15156;DHT22;7678;50.058;8.306;2023-04-01T06:05:13;9.30;99.90
15156;DHT22;7678;50.058;8.306;2023-04-01T06:07:41;9.30;99.90
15156;DHT22;7678;50.058;8.306;2023-04-01T06:10:15;9.30;99.90
15156;DHT22;7678;50.058;8.306;2023-04-01T06:12:52;9.40;99.90
15156;DHT22;7678;50.058;8.306;2023-04-01T06:15:34;9.40;99.90
15156;DHT22;7678;50.058;8.306;2023-04-01T06:21:46;9.40;99.90
15156;DHT22;7678;50.058;8.306;2023-04-01T06:24:33;9.40;99.90
15156;DHT22;7678;50.058;8.306;2023-04-01T06:27:10;9.40;99.90
15156;DHT22;7678;50.058;8.306;2023-04-01T06:29:57;9.40;99.90
15156;DHT22;7678;50.058;8.306;2023-04-01T06:32:48;9.30;99.90
15156;DHT22;7678;50.058;8.306;2023-04-01T06:35:46;9.30;99.90
15156;DHT22;7678;50.058;8.306;2023-04-01T06:44:25;9.30;99.90
15156;DHT22;7678;50.058;8.306;2023-04-01T06:46:58;9.20;99.90
15156;DHT22;7678;50.058;8.306;2023-04-01T06:49:44;9.20;99.90
15156;DHT22;7678;50.058;8.306;2023-04-01T06:52:25;9.20;99.90
15156;DHT22;7678;50.058;8.306;2023-04-01T06:55:00;9.20;99.90
15156;DHT22;7678;50.058;8.306;2023-04-01T06:57:32;9.10;99.90
15156;DHT22;7678;50.058;8.306;2023-04-01T07:00:04;9.10;99.90
15156;DHT22;7678;50.058;8.306;2023-04-01T07:02:43;9.10;99.90
15156;DHT22;7678;50.058;8.306;2023-04-01T07:05:15;9.10;99.90
15156;DHT22;7678;50.058;8.306;2023-04-01T07:07:46;9.20;99.90
15156;DHT22;7678;50.058;8.306;2023-04-01T07:10:20;9.20;99.90
15156;DHT22;7678;50.058;8.306;2023-04-01T07:12:54;9.20;99.90
15156;DHT22;7678;50.058;8.306;2023-04-01T07:15:27;9.30;99.90
15156;DHT22;7678;50.058;8.306;2023-04-01T07:17:58;9.30;99.90
15156;DHT22;7678;50.058;8.306;2023-04-01T07:20:31;9.30;99.90
15156;DHT22;7678;50.058;8.306;2023-04-01T07:23:02;9.30;99.90
15156;DHT22;7678;50.058;8.306;2023-04-01T07:25:33;9.30;99.90
15156;DHT22;7678;50.058;8.306;2023-04-01T07:28:04;9.30;99.90
15156;DHT22;7678;50.058;8.306;2023-04-01T07:30:42;9.30;99.90
15156;DHT22;7678;50.058;8.306;2023-04-01T07:33:18;9.40;99.90
15156;DHT22;7678;50.058;8.306;2023-04-01T07:35:52;9.40;99.90
15156;DHT22;7678;50.058;8.306;2023-04-01T07:38:26;9.50;99.90
15156;DHT22;7678;50.058;8.306;2023-04-01T07:41:03;9.60;99.90
15156;DHT22;7678;50.058;8.306;2023-04-01T07:43:47;9.70;99.90
15156;DHT22;7678;50.058;8.306;2023-04-01T07:46:35;9.80;99.90
15156;DHT22;7678;50.058;8.306;2023-04-01T07:49:10;10.00;99.90
15156;DHT22;7678;50.058;8.306;2023-04-01T07:51:49;10.10;99.90
15156;DHT22;7678;50.058;8.306;2023-04-01T07:54:22;10.20;99.90
15156;DHT22;7678;50.058;8.306;2023-04-01T07:56:57;10.30;99.90
15156;DHT22;7678;50.058;8.306;2023-04-01T07:59:36;10.30;99.90
15156;DHT22;7678;50.058;8.306;2023-04-01T08:02:18;10.10;99.90
15156;DHT22;7678;50.058;8.306;2023-04-01T08:04:57;10.10;99.90
15156;DHT22;7678;50.058;8.306;2023-04-01T08:07:35;10.00;99.90
15156;DHT22;7678;50.058;8.306;2023-04-01T08:10:11;10.00;99.90
15156;DHT22;7678;50.058;8.306;2023-04-01T08:12:49;10.00;99.90
15156;DHT22;7678;50.058;8.306;2023-04-01T08:15:25;10.00;99.90
15156;DHT22;7678;50.058;8.306;2023-04-01T08:18:10;10.00;99.90
15156;DHT22;7678;50.058;8.306;2023-04-01T08:20:46;9.90;99.90
15156;DHT22;7678;50.058;8.306;2023-04-01T08:23:21;9.90;99.90
15156;DHT22;7678;50.058;8.306;2023-04-01T08:25:52;9.90;99.90
15156;DHT22;7678;50.058;8.306;2023-04-01T08:28:26;9.80;99.90
15156;DHT22;7678;50.058;8.306;2023-04-01T08:30:58;9.80;99.90
15156;DHT22;7678;50.058;8.306;2023-04-01T08:33:30;9.80;99.90
15156;DHT22;7678;50.058;8.306;2023-04-01T08:36:03;9.90;99.90
15156;DHT22;7678;50.058;8.306;2023-04-01T08:38:39;9.80;99.90
15156;DHT22;7678;50.058;8.306;2023-04-01T08:41:18;9.90;99.90
15156;DHT22;7678;50.058;8.306;2023-04-01T08:44:10;9.90;99.90
15156;DHT22;7678;50.058;8.306;2023-04-01T08:50:03;9.90;99.90
15156;DHT22;7678;50.058;8.306;2023-04-01T08:52:35;9.80;99.90
15156;DHT22;7678;50.058;8.306;2023-04-01T08:55:31;9.90;99.90
15156;DHT22;7678;50.058;8.306;2023-04-01T09:01:15;10.00;99.90
15156;DHT22;7678;50.058;8.306;2023-04-01T09:04:04;10.10;99.90
15156;DHT22;7678;50.058;8.306;2023-04-01T09:06:52;10.20;99.90
15156;DHT22;7678;50.058;8.306;2023-04-01T09:12:42;10.10;99.90
15156;DHT22;7678;50.058;8.306;2023-04-01T09:15:32;10.10;99.90
15156;DHT22;7678;50.058;8.306;2023-04-01T09:21:24;10.00;99.90
15156;DHT22;7678;50.058;8.306;2023-04-01T09:24:32;10.00;99.90
15156;DHT22;7678;50.058;8.306;2023-04-01T09:27:05;10.10;99.90
15156;DHT22;7678;50.058;8.306;2023-04-01T09:30:19;10.30;99.90
15156;DHT22;7678;50.058;8.306;2023-04-01T09:36:03;10.30;99.90
15156;DHT22;7678;50.058;8.306;2023-04-01T09:38:41;10.20;99.90
15156;DHT22;7678;50.058;8.306;2023-04-01T09:41:26;10.20;99.90
15156;DHT22;7678;50.058;8.306;2023-04-01T09:44:01;10.30;99.90
15156;DHT22;7678;50.058;8.306;2023-04-01T09:46:48;10.50;99.90
15156;DHT22;7678;50.058;8.306;2023-04-01T09:49:32;10.50;99.90
15156;DHT22;7678;50.058;8.306;2023-04-01T09:52:18;10.60;99.90
15156;DHT22;7678;50.058;8.306;2023-04-01T09:55:00;10.70;99.90
15156;DHT22;7678;50.058;8.306;2023-04-01T09:58:02;10.90;99.90
15156;DHT22;7678;50.058;8.306;2023-04-01T10:07:48;10.90;99.90
15156;DHT22;7678;50.058;8.306;2023-04-01T10:10:48;10.80;99.90
15156;DHT22;7678;50.058;8.306;2023-04-01T10:14:08;10.70;99.90
15156;DHT22;7678;50.058;8.306;2023-04-01T10:20:29;10.90;99.90
15156;DHT22;7678;50.058;8.306;2023-04-01T10:23:52;11.00;99.90
15156;DHT22;7678;50.058;8.306;2023-04-01T10:26:54;11.10;99.90
15156;DHT22;7678;50.058;8.306;2023-04-01T10:30:05;10.90;99.90
15156;DHT22;7678;50.058;8.306;2023-04-01T10:43:01;11.20;99.90
15156;DHT22;7678;50.058;8.306;2023-04-01T10:46:07;11.30;99.90
15156;DHT22;7678;50.058;8.306;2023-04-01T10:49:14;11.10;99.90
15156;DHT22;7678;50.058;8.306;2023-04-01T10:52:20;11.00;99.90
15156;DHT22;7678;50.058;8.306;2023-04-01T10:55:02;11.00;99.90
15156;DHT22;7678;50.058;8.306;2023-04-01T10:58:03;11.10;99.90
15156;DHT22;7678;50.058;8.306;2023-04-01T11:12:51;11.80;99.90
15156;DHT22;7678;50.058;8.306;2023-04-01T11:15:54;11.80;99.90
15156;DHT22;7678;50.058;8.306;2023-04-01T11:21:58;11.80;99.90
15156;DHT22;7678;50.058;8.306;2023-04-01T11:27:48;11.60;99.90
15156;DHT22;7678;50.058;8.306;2023-04-01T11:30:44;11.70;99.90
15156;DHT22;7678;50.058;8.306;2023-04-01T11:33:22;11.80;99.90
15156;DHT22;7678;50.058;8.306;2023-04-01T11:36:20;11.90;99.90
15156;DHT22;7678;50.058;8.306;2023-04-01T11:39:08;11.80;99.90
15156;DHT22;7678;50.058;8.306;2023-04-01T11:41:45;11.80;99.90
15156;DHT22;7678;50.058;8.306;2023-04-01T11:44:18;11.70;99.90
15156;DHT22;7678;50.058;8.306;2023-04-01T11:47:00;11.60;99.90
15156;DHT22;7678;50.058;8.306;2023-04-01T11:50:08;11.60;99.90
15156;DHT22;7678;50.058;8.306;2023-04-01T11:53:10;11.60;99.90
15156;DHT22;7678;50.058;8.306;2023-04-01T11:55:51;11.50;99.90
15156;DHT22;7678;50.058;8.306;2023-04-01T11:59:00;11.50;99.90
15156;DHT22;7678;50.058;8.306;2023-04-01T12:01:43;11.60;99.90
15156;DHT22;7678;50.058;8.306;2023-04-01T12:07:24;11.30;99.90
15156;DHT22;7678;50.058;8.306;2023-04-01T12:12:40;11.30;99.90
15156;DHT22;7678;50.058;8.306;2023-04-01T12:15:35;11.00;99.90
15156;DHT22;7678;50.058;8.306;2023-04-01T12:18:14;11.10;99.90
15156;DHT22;7678;50.058;8.306;2023-04-01T12:20:49;11.10;99.90
15156;DHT22;7678;50.058;8.306;2023-04-01T12:23:46;11.30;99.90
15156;DHT22;7678;50.058;8.306;2023-04-01T12:26:52;11.30;99.90
15156;DHT22;7678;50.058;8.306;2023-04-01T12:29:47;11.40;99.90
15156;DHT22;7678;50.058;8.306;2023-04-01T12:32:24;11.50;99.90
15156;DHT22;7678;50.058;8.306;2023-04-01T12:35:12;11.60;99.90
15156;DHT22;7678;50.058;8.306;2023-04-01T12:37:50;11.60;99.90
15156;DHT22;7678;50.058;8.306;2023-04-01T12:41:05;11.60;99.90
15156;DHT22;7678;50.058;8.306;2023-04-01T12:44:14;11.60;99.90
15156;DHT22;7678;50.058;8.306;2023-04-01T12:47:00;11.60;99.90
15156;DHT22;7678;50.058;8.306;2023-04-01T12:49:59;11.80;99.90
15156;DHT22;7678;50.058;8.306;2023-04-01T12:52:43;12.00;99.90
15156;DHT22;7678;50.058;8.306;2023-04-01T12:58:44;12.00;99.90
15156;DHT22;7678;50.058;8.306;2023-04-01T13:01:29;11.70;99.90
15156;DHT22;7678;50.058;8.306;2023-04-01T13:04:26;11.80;99.90
15156;DHT22;7678;50.058;8.306;2023-04-01T13:07:14;11.70;99.90
15156;DHT22;7678;50.058;8.306;2023-04-01T13:09:52;11.80;99.90
15156;DHT22;7678;50.058;8.306;2023-04-01T13:12:35;11.90;99.90
15156;DHT22;7678;50.058;8.306;2023-04-01T13:15:31;12.10;99.90
15156;DHT22;7678;50.058;8.306;2023-04-01T13:18:13;12.20;99.90
15156;DHT22;7678;50.058;8.306;2023-04-01T13:20:48;11.90;99.90
15156;DHT22;7678;50.058;8.306;2023-04-01T13:23:37;11.60;99.90
15156;DHT22;7678;50.058;8.306;2023-04-01T13:26:15;11.70;99.90
15156;DHT22;7678;50.058;8.306;2023-04-01T13:28:50;11.70;99.90
15156;DHT22;7678;50.058;8.306;2023-04-01T13:31:37;11.50;99.90
15156;DHT22;7678;50.058;8.306;2023-04-01T13:34:20;11.30;99.90
15156;DHT22;7678;50.058;8.306;2023-04-01T13:36:59;11.10;99.90
15156;DHT22;7678;50.058;8.306;2023-04-01T13:39:46;11.00;99.90
15156;DHT22;7678;50.058;8.306;2023-04-01T13:42:24;11.00;99.90
15156;DHT22;7678;50.058;8.306;2023-04-01T13:44:59;11.00;99.90
15156;DHT22;7678;50.058;8.306;2023-04-01T13:48:01;11.00;99.90
15156;DHT22;7678;50.058;8.306;2023-04-01T13:50:53;10.80;99.90
15156;DHT22;7678;50.058;8.306;2023-04-01T13:56:48;10.80;99.90
15156;DHT22;7678;50.058;8.306;2023-04-01T13:59:46;10.50;99.90
15156;DHT22;7678;50.058;8.306;2023-04-01T14:02:37;10.50;99.90
15156;DHT22;7678;50.058;8.306;2023-04-01T14:08:20;10.20;99.90
15156;DHT22;7678;50.058;8.306;2023-04-01T14:11:02;10.10;99.90
15156;DHT22;7678;50.058;8.306;2023-04-01T14:13:38;10.00;99.90
15156;DHT22;7678;50.058;8.306;2023-04-01T14:16:24;10.00;99.90
15156;DHT22;7678;50.058;8.306;2023-04-01T14:19:08;10.00;99.90
15156;DHT22;7678;50.058;8.306;2023-04-01T14:21:44;10.30;99.90
15156;DHT22;7678;50.058;8.306;2023-04-01T14:24:32;10.50;99.90
15156;DHT22;7678;50.058;8.306;2023-04-01T14:27:30;10.70;99.90
15156;DHT22;7678;50.058;8.306;2023-04-01T14:30:12;10.80;99.90
15156;DHT22;7678;50.058;8.306;2023-04-01T14:32:49;10.80;99.90
15156;DHT22;7678;50.058;8.306;2023-04-01T14:35:29;10.90;99.90
15156;DHT22;7678;50.058;8.306;2023-04-01T14:38:10;10.90;99.90
15156;DHT22;7678;50.058;8.306;2023-04-01T14:40:52;10.80;99.90
15156;DHT22;7678;50.058;8.306;2023-04-01T14:43:46;10.70;99.90
15156;DHT22;7678;50.058;8.306;2023-04-01T14:46:27;10.70;99.90
15156;DHT22;7678;50.058;8.306;2023-04-01T14:49:02;10.70;99.90
15156;DHT22;7678;50.058;8.306;2023-04-01T14:51:34;10.70;99.90
15156;DHT22;7678;50.058;8.306;2023-04-01T14:54:08;10.70;99.90
15156;DHT22;7678;50.058;8.306;2023-04-01T14:56:41;10.80;99.90
15156;DHT22;7678;50.058;8.306;2023-04-01T14:59:14;10.90;99.90
15156;DHT22;7678;50.058;8.306;2023-04-01T15:01:51;11.00;99.90
15156;DHT22;7678;50.058;8.306;2023-04-01T15:04:49;11.00;99.90
15156;DHT22;7678;50.058;8.306;2023-04-01T15:10:17;11.10;99.90
15156;DHT22;7678;50.058;8.306;2023-04-01T15:12:53;11.10;99.90
15156;DHT22;7678;50.058;8.306;2023-04-01T15:15:44;11.20;99.90
15156;DHT22;7678;50.058;8.306;2023-04-01T15:18:18;11.20;99.90
15156;DHT22;7678;50.058;8.306;2023-04-01T15:21:09;11.20;99.90
15156;DHT22;7678;50.058;8.306;2023-04-01T15:23:51;11.30;99.90
15156;DHT22;7678;50.058;8.306;2023-04-01T15:26:37;11.50;99.90
15156;DHT22;7678;50.058;8.306;2023-04-01T15:29:37;11.70;99.90
15156;DHT22;7678;50.058;8.306;2023-04-01T15:32:19;12.00;99.90
15156;DHT22;7678;50.058;8.306;2023-04-01T15:34:54;12.10;99.90
15156;DHT22;7678;50.058;8.306;2023-04-01T15:37:34;12.00;99.90
15156;DHT22;7678;50.058;8.306;2023-04-01T15:40:15;11.80;99.90
15156;DHT22;7678;50.058;8.306;2023-04-01T15:43:40;11.60;99.90
15156;DHT22;7678;50.058;8.306;2023-04-01T15:49:03;11.20;99.90
15156;DHT22;7678;50.058;8.306;2023-04-01T15:51:48;11.10;99.90
15156;DHT22;7678;50.058;8.306;2023-04-01T15:57:25;11.10;99.90
15156;DHT22;7678;50.058;8.306;2023-04-01T16:00:22;11.10;99.90
15156;DHT22;7678;50.058;8.306;2023-04-01T16:06:01;11.10;99.90
15156;DHT22;7678;50.058;8.306;2023-04-01T16:09:00;11.00;99.90
15156;DHT22;7678;50.058;8.306;2023-04-01T16:11:39;10.90;99.90
15156;DHT22;7678;50.058;8.306;2023-04-01T16:14:28;10.90;99.90
15156;DHT22;7678;50.058;8.306;2023-04-01T16:17:10;10.90;99.90
15156;DHT22;7678;50.058;8.306;2023-04-01T16:19:51;11.00;99.90
15156;DHT22;7678;50.058;8.306;2023-04-01T16:22:25;10.90;99.90
15156;DHT22;7678;50.058;8.306;2023-04-01T16:25:17;10.90;99.90
15156;DHT22;7678;50.058;8.306;2023-04-01T16:27:53;10.80;99.90
15156;DHT22;7678;50.058;8.306;2023-04-01T16:30:35;10.80;99.90
15156;DHT22;7678;50.058;8.306;2023-04-01T16:33:09;10.60;99.90
15156;DHT22;7678;50.058;8.306;2023-04-01T16:35:44;10.60;99.90
15156;DHT22;7678;50.058;8.306;2023-04-01T16:38:20;10.60;99.90
15156;DHT22;7678;50.058;8.306;2023-04-01T16:40:58;10.60;99.90
15156;DHT22;7678;50.058;8.306;2023-04-01T16:43:38;10.60;99.90
15156;DHT22;7678;50.058;8.306;2023-04-01T16:49:31;10.60;99.90
15156;DHT22;7678;50.058;8.306;2023-04-01T16:52:34;10.60;99.90
15156;DHT22;7678;50.058;8.306;2023-04-01T16:55:15;10.60;99.90
15156;DHT22;7678;50.058;8.306;2023-04-01T16:57:48;10.60;99.90
15156;DHT22;7678;50.058;8.306;2023-04-01T17:00:25;10.50;99.90
15156;DHT22;7678;50.058;8.306;2023-04-01T17:03:02;10.50;99.90
15156;DHT22;7678;50.058;8.306;2023-04-01T17:05:52;10.50;99.90
15156;DHT22;7678;50.058;8.306;2023-04-01T17:08:35;10.40;99.90
15156;DHT22;7678;50.058;8.306;2023-04-01T17:11:09;10.40;99.90
15156;DHT22;7678;50.058;8.306;2023-04-01T17:13:46;10.40;99.90
15156;DHT22;7678;50.058;8.306;2023-04-01T17:16:40;10.40;99.90
15156;DHT22;7678;50.058;8.306;2023-04-01T17:19:20;10.40;99.90
15156;DHT22;7678;50.058;8.306;2023-04-01T17:21:57;10.30;99.90
15156;DHT22;7678;50.058;8.306;2023-04-01T17:24:42;10.40;99.90
15156;DHT22;7678;50.058;8.306;2023-04-01T17:27:22;10.30;99.90
15156;DHT22;7678;50.058;8.306;2023-04-01T17:30:08;10.30;99.90
15156;DHT22;7678;50.058;8.306;2023-04-01T17:32:50;10.30;99.90
15156;DHT22;7678;50.058;8.306;2023-04-01T17:35:22;10.30;99.90
15156;DHT22;7678;50.058;8.306;2023-04-01T17:38:01;10.30;99.90
15156;DHT22;7678;50.058;8.306;2023-04-01T17:40:41;10.20;99.90
15156;DHT22;7678;50.058;8.306;2023-04-01T17:43:19;10.20;99.90
15156;DHT22;7678;50.058;8.306;2023-04-01T17:45:54;10.10;99.90
15156;DHT22;7678;50.058;8.306;2023-04-01T17:48:41;10.10;99.90
15156;DHT22;7678;50.058;8.306;2023-04-01T17:51:29;10.10;99.90
15156;DHT22;7678;50.058;8.306;2023-04-01T17:54:12;10.10;99.90
15156;DHT22;7678;50.058;8.306;2023-04-01T17:56:54;10.00;99.90
15156;DHT22;7678;50.058;8.306;2023-04-01T17:59:33;10.00;99.90
15156;DHT22;7678;50.058;8.306;2023-04-01T18:02:15;9.90;99.90
15156;DHT22;7678;50.058;8.306;2023-04-01T18:05:21;9.80;99.90
15156;DHT22;7678;50.058;8.306;2023-04-01T18:08:07;9.60;99.90
15156;DHT22;7678;50.058;8.306;2023-04-01T18:10:48;9.60;99.90
15156;DHT22;7678;50.058;8.306;2023-04-01T18:14:07;9.50;99.90
15156;DHT22;7678;50.058;8.306;2023-04-01T18:16:58;9.50;99.90
15156;DHT22;7678;50.058;8.306;2023-04-01T18:19:37;9.50;99.90
15156;DHT22;7678;50.058;8.306;2023-04-01T18:22:19;9.50;99.90
15156;DHT22;7678;50.058;8.306;2023-04-01T18:24:56;9.50;99.90
15156;DHT22;7678;50.058;8.306;2023-04-01T18:27:30;9.50;99.90
15156;DHT22;7678;50.058;8.306;2023-04-01T18:30:03;9.50;99.90
15156;DHT22;7678;50.058;8.306;2023-04-01T18:32:44;9.50;99.90
15156;DHT22;7678;50.058;8.306;2023-04-01T18:35:22;9.50;99.90
15156;DHT22;7678;50.058;8.306;2023-04-01T18:37:58;9.40;99.90
15156;DHT22;7678;50.058;8.306;2023-04-01T18:40:32;9.40;99.90
15156;DHT22;7678;50.058;8.306;2023-04-01T18:43:11;9.30;99.90
15156;DHT22;7678;50.058;8.306;2023-04-01T18:45:45;9.20;99.90
15156;DHT22;7678;50.058;8.306;2023-04-01T18:48:38;9.10;99.90
15156;DHT22;7678;50.058;8.306;2023-04-01T18:51:20;9.20;99.90